createdAt,value
2022-10-23T00:00:57.922Z,101383.16
2022-10-23T00:03:24.406Z,101380.63
2022-10-23T00:05:50.784Z,101383.50
2022-10-23T00:08:17.471Z,101381.06
2022-10-23T00:10:44.094Z,101381.16
2022-10-23T00:13:10.685Z,101376.75
2022-10-23T00:15:37.662Z,101383.22
2022-10-23T00:18:04.378Z,101372.69
2022-10-23T00:20:30.955Z,101380.06
2022-10-23T00:22:57.394Z,101391.06
2022-10-23T00:25:23.806Z,101384.03
2022-10-23T00:27:50.146Z,101382.25
2022-10-23T00:30:16.707Z,101395.88
2022-10-23T00:32:43.155Z,101393.25
2022-10-23T00:35:10.219Z,101395.97
2022-10-23T00:37:36.580Z,101385.97
2022-10-23T00:40:04.713Z,101387.00
2022-10-23T00:42:31.164Z,101381.53
2022-10-23T00:45:15.668Z,101382.56
2022-10-23T00:47:42.741Z,101380.75
2022-10-23T00:50:09.350Z,101377.31
2022-10-23T00:52:39.480Z,101373.91
2022-10-23T00:55:06.090Z,101366.59
2022-10-23T00:57:32.767Z,101362.97
2022-10-23T00:59:59.127Z,101364.81
2022-10-23T01:02:25.680Z,101369.94
2022-10-23T01:04:52.108Z,101362.38
2022-10-23T01:07:28.355Z,101367.34
2022-10-23T01:10:06.232Z,101357.78
2022-10-23T01:12:46.669Z,101351.81
2022-10-23T01:15:25.785Z,101348.56
2022-10-23T01:18:13.053Z,101340.91
2022-10-23T01:20:50.589Z,101344.22
2022-10-23T01:23:31.945Z,101348.56
2022-10-23T01:26:10.095Z,101349.97
2022-10-23T01:28:42.591Z,101349.47
2022-10-23T01:31:15.426Z,101339.94
2022-10-23T01:33:47.380Z,101337.94
2022-10-23T01:36:16.627Z,101332.72
2022-10-23T01:38:56.159Z,101331.16
2022-10-23T01:41:32.884Z,101347.56
2022-10-23T01:44:34.540Z,101333.41
2022-10-23T01:47:03.562Z,101334.53
2022-10-23T01:49:31.350Z,101332.00
2022-10-23T01:52:01.872Z,101327.84
2022-10-23T01:54:35.621Z,101327.16
2022-10-23T01:57:03.700Z,101326.16
2022-10-23T01:59:37.212Z,101321.53
2022-10-23T02:02:05.372Z,101313.56
2022-10-23T02:04:40.938Z,101296.66
2022-10-23T02:07:07.717Z,101307.44
2022-10-23T02:09:34.450Z,101315.47
2022-10-23T02:12:10.284Z,101297.44
2022-10-23T02:14:42.547Z,101300.13
2022-10-23T02:17:38.259Z,101297.22
2022-10-23T02:20:29.376Z,101294.38
2022-10-23T02:23:02.748Z,101296.88
2022-10-23T02:25:55.502Z,101304.47
2022-10-23T02:28:32.756Z,101284.75
2022-10-23T02:31:01.866Z,101289.38
2022-10-23T02:33:30.242Z,101288.44
2022-10-23T02:35:57.243Z,101286.50
2022-10-23T02:38:31.781Z,101284.75
2022-10-23T02:41:00.984Z,101279.28
2022-10-23T02:43:35.844Z,101273.81
2022-10-23T02:46:20.302Z,101276.41
2022-10-23T02:48:59.257Z,101273.69
2022-10-23T02:51:40.260Z,101278.84
2022-10-23T02:54:26.611Z,101276.94
2022-10-23T02:57:01.694Z,101276.56
2022-10-23T02:59:42.280Z,101271.56
2022-10-23T03:05:08.102Z,101263.41
2022-10-23T03:07:35.132Z,101266.00
2022-10-23T03:10:02.274Z,101255.19
2022-10-23T03:12:28.649Z,101248.81
2022-10-23T03:14:55.072Z,101253.25
2022-10-23T03:17:21.541Z,101254.13
2022-10-23T03:19:47.934Z,101248.53
2022-10-23T03:22:14.308Z,101244.00
2022-10-23T03:24:40.830Z,101244.09
2022-10-23T03:27:07.466Z,101240.59
2022-10-23T03:29:33.993Z,101221.75
2022-10-23T03:32:00.409Z,101229.22
2022-10-23T03:34:26.747Z,101222.16
2022-10-23T03:36:53.557Z,101218.75
2022-10-23T03:39:19.988Z,101222.59
2022-10-23T03:41:46.405Z,101212.09
2022-10-23T03:44:12.891Z,101209.59
2022-10-23T03:46:39.438Z,101205.31
2022-10-23T03:49:05.861Z,101208.13
2022-10-23T03:51:32.555Z,101206.66
2022-10-23T03:53:59.156Z,101210.31
2022-10-23T03:56:25.689Z,101193.16
2022-10-23T03:58:52.113Z,101193.22
2022-10-23T04:01:18.572Z,101189.66
2022-10-23T04:03:45.113Z,101191.50
2022-10-23T04:06:11.564Z,101197.78
2022-10-23T04:08:38.178Z,101197.78
2022-10-23T04:11:04.657Z,101196.22
2022-10-23T04:13:31.081Z,101194.47
2022-10-23T04:15:57.406Z,101183.84
2022-10-23T04:18:23.772Z,101178.59
2022-10-23T04:20:50.994Z,101180.34
2022-10-23T04:23:18.114Z,101187.47
2022-10-23T04:25:44.939Z,101176.88
2022-10-23T04:28:11.399Z,101174.34
2022-10-23T04:30:37.906Z,101167.09
2022-10-23T04:33:04.571Z,101166.41
2022-10-23T04:35:30.930Z,101159.09
2022-10-23T04:37:57.274Z,101149.25
2022-10-23T04:40:24.026Z,101152.56
2022-10-23T04:42:53.893Z,101137.28
2022-10-23T04:45:20.248Z,101145.47
2022-10-23T04:47:46.734Z,101132.06
2022-10-23T04:50:14.009Z,101134.69
2022-10-23T04:52:40.908Z,101129.38
2022-10-23T04:55:08.614Z,101135.56
2022-10-23T04:57:34.965Z,101133.81
2022-10-23T05:00:01.535Z,101135.75
2022-10-23T05:02:28.136Z,101135.91
2022-10-23T05:04:54.574Z,101138.81
2022-10-23T05:09:48.358Z,101124.53
2022-10-23T05:12:14.816Z,101120.28
2022-10-23T05:14:41.317Z,101116.81
2022-10-23T05:17:20.999Z,101110.44
2022-10-23T05:19:57.563Z,101103.38
2022-10-23T05:22:27.174Z,101107.94
2022-10-23T05:24:54.564Z,101111.41
2022-10-23T05:27:20.943Z,101105.41
2022-10-23T05:29:47.398Z,101101.75
2022-10-23T05:32:15.659Z,101100.00
2022-10-23T05:34:42.719Z,101101.84
2022-10-23T05:37:12.608Z,101096.44
2022-10-23T05:39:39.247Z,101096.16
2022-10-23T05:42:05.679Z,101103.38
2022-10-23T05:44:32.062Z,101098.94
2022-10-23T05:46:58.672Z,101097.91
2022-10-23T05:49:25.595Z,101095.88
2022-10-23T05:51:52.416Z,101097.81
2022-10-23T05:54:19.015Z,101097.63
2022-10-23T05:56:45.373Z,101091.16
2022-10-23T05:59:11.858Z,101089.22
2022-10-23T06:01:38.847Z,101082.78
2022-10-23T06:04:05.992Z,101082.41
2022-10-23T06:06:32.506Z,101083.94
2022-10-23T06:09:02.400Z,101077.13
2022-10-23T06:11:28.936Z,101072.31
2022-10-23T06:16:26.937Z,101069.91
2022-10-23T06:18:53.480Z,101065.16
2022-10-23T06:21:20.115Z,101069.41
2022-10-23T06:23:46.874Z,101082.72
2022-10-23T06:26:15.811Z,101086.88
2022-10-23T06:28:42.360Z,101087.34
2022-10-23T06:31:11.276Z,101082.13
2022-10-23T06:33:37.801Z,101082.56
2022-10-23T06:36:05.511Z,101078.84
2022-10-23T06:38:37.278Z,101070.50
2022-10-23T06:41:08.355Z,101076.28
2022-10-23T06:43:35.007Z,101063.41
2022-10-23T06:46:04.846Z,101063.41
2022-10-23T06:48:31.885Z,101060.81
2022-10-23T06:50:59.339Z,101056.19
2022-10-23T06:53:25.893Z,101057.06
2022-10-23T06:55:55.298Z,101047.84
2022-10-23T06:58:22.181Z,101057.50
2022-10-23T07:00:48.686Z,101052.84
2022-10-23T07:03:15.124Z,101053.53
2022-10-23T07:05:41.818Z,101047.16
2022-10-23T07:08:08.369Z,101048.03
2022-10-23T07:10:34.752Z,101035.94
2022-10-23T07:13:01.445Z,101039.41
2022-10-23T07:15:28.323Z,101040.25
2022-10-23T07:17:55.370Z,101035.69
2022-10-23T07:20:21.789Z,101041.78
2022-10-23T07:22:55.013Z,101041.59
2022-10-23T07:25:22.474Z,101039.53
2022-10-23T07:27:49.286Z,101039.41
2022-10-23T07:30:15.848Z,101033.81
2022-10-23T07:32:43.155Z,101026.47
2022-10-23T07:35:11.458Z,101028.94
2022-10-23T07:37:37.914Z,101022.34
2022-10-23T07:40:06.216Z,101026.56
2022-10-23T07:42:33.000Z,101026.28
2022-10-23T07:44:59.393Z,101019.56
2022-10-23T07:47:25.769Z,101019.16
2022-10-23T07:49:52.277Z,101022.28
2022-10-23T07:52:18.818Z,101018.38
2022-10-23T07:54:45.170Z,101019.84
2022-10-23T07:57:12.194Z,101021.34
2022-10-23T07:59:38.568Z,101019.31
2022-10-23T08:02:05.041Z,101007.94
2022-10-23T08:04:31.622Z,101003.78
2022-10-23T08:06:57.995Z,100999.88
2022-10-23T08:09:24.522Z,100995.97
2022-10-23T08:11:51.029Z,101002.03
2022-10-23T08:14:17.473Z,100998.28
2022-10-23T08:16:43.835Z,100996.31
2022-10-23T08:19:10.360Z,100999.53
2022-10-23T08:21:36.806Z,100993.91
2022-10-23T08:24:03.481Z,100996.16
2022-10-23T08:26:30.403Z,100984.13
2022-10-23T08:28:59.165Z,100989.09
2022-10-23T08:31:26.345Z,100976.06
2022-10-23T08:33:53.043Z,100979.19
2022-10-23T08:36:24.966Z,100988.47
2022-10-23T08:38:56.475Z,100974.50
2022-10-23T08:41:30.895Z,100971.31
2022-10-23T08:44:09.732Z,100972.81
2022-10-23T08:46:44.349Z,100968.41
2022-10-23T08:49:20.749Z,100966.00
2022-10-23T08:51:50.225Z,100963.91
2022-10-23T08:54:24.322Z,100957.66
2022-10-23T08:57:00.265Z,100949.59
2022-10-23T08:59:57.738Z,100947.41
2022-10-23T09:02:35.910Z,100946.50
2022-10-23T09:05:02.361Z,100938.03
2022-10-23T09:07:33.999Z,100939.63
2022-10-23T09:10:31.077Z,100922.09
2022-10-23T09:13:17.773Z,100923.38
2022-10-23T09:15:49.329Z,100915.97
2022-10-23T09:18:17.262Z,100913.72
2022-10-23T09:20:46.098Z,100922.63
2022-10-23T09:23:17.379Z,100924.72
2022-10-23T09:25:45.666Z,100915.72
2022-10-23T09:28:27.858Z,100921.03
2022-10-23T09:30:54.298Z,100915.97
2022-10-23T09:33:26.651Z,100907.94
2022-10-23T09:35:55.897Z,100899.06
2022-10-23T09:38:25.293Z,100889.06
2022-10-23T09:40:51.843Z,100893.88
2022-10-23T09:43:25.796Z,100886.69
2022-10-23T09:46:05.048Z,100884.81
2022-10-23T09:48:32.005Z,100875.31
2022-10-23T09:51:01.463Z,100869.66
2022-10-23T09:53:34.928Z,100872.25
2022-10-23T09:56:05.018Z,100881.75
2022-10-23T09:58:42.590Z,100877.06
2022-10-23T10:01:22.810Z,100878.53
2022-10-23T10:03:51.117Z,100871.47
2022-10-23T10:06:32.406Z,100871.34
2022-10-23T10:09:17.993Z,100881.09
2022-10-23T10:11:50.049Z,100872.69
2022-10-23T10:14:22.247Z,100866.13
2022-10-23T10:16:54.379Z,100870.19
2022-10-23T10:20:18.249Z,100855.75
2022-10-23T10:23:02.779Z,100858.97
2022-10-23T10:25:37.637Z,100858.25
2022-10-23T10:28:15.929Z,100853.25
2022-10-23T10:30:54.985Z,100852.28
2022-10-23T10:33:28.786Z,100841.63
2022-10-23T10:36:07.379Z,100831.25
2022-10-23T10:38:38.043Z,100839.88
2022-10-23T10:41:19.953Z,100826.69
2022-10-23T10:44:06.158Z,100826.78
2022-10-23T10:46:50.545Z,100838.75
2022-10-23T10:49:22.406Z,100830.75
2022-10-23T10:52:00.649Z,100827.34
2022-10-23T10:54:47.523Z,100815.38
2022-10-23T10:57:32.087Z,100815.63
2022-10-23T11:00:03.379Z,100811.78
2022-10-23T11:02:39.591Z,100804.13
2022-10-23T11:05:18.927Z,100804.41
2022-10-23T11:08:17.694Z,100807.75
2022-10-23T11:10:50.906Z,100796.47
2022-10-23T11:13:38.340Z,100783.16
2022-10-23T11:16:22.075Z,100774.28
2022-10-23T11:19:04.689Z,100782.31
2022-10-23T11:21:40.556Z,100761.59
2022-10-23T11:24:15.659Z,100762.34
2022-10-23T11:27:26.310Z,100736.94
2022-10-23T11:30:14.524Z,100715.09
2022-10-23T11:32:43.890Z,100694.84
2022-10-23T11:35:25.574Z,100664.63
2022-10-23T11:38:19.489Z,100644.13
2022-10-23T11:40:58.586Z,100657.19
2022-10-23T11:43:31.292Z,100651.44
2022-10-23T11:45:58.477Z,100664.72
2022-10-23T11:48:38.819Z,100657.78
2022-10-23T11:51:06.204Z,100658.09
2022-10-23T11:53:32.505Z,100654.00
2022-10-23T11:55:58.806Z,100649.56
2022-10-23T11:58:40.809Z,100643.59
2022-10-23T12:01:28.552Z,100628.72
2022-10-23T12:04:03.853Z,100630.44
2022-10-23T12:06:39.840Z,100621.94
2022-10-23T12:09:23.090Z,100617.09
2022-10-23T12:12:04.413Z,100604.34
2022-10-23T12:14:38.394Z,100598.50
2022-10-23T12:17:23.043Z,100594.78
2022-10-23T12:20:01.250Z,100594.06
2022-10-23T12:22:38.158Z,100596.78
2022-10-23T12:25:14.727Z,100595.63
2022-10-23T12:27:48.773Z,100586.47
2022-10-23T12:30:24.129Z,100590.50
2022-10-23T12:33:10.941Z,100580.69
2022-10-23T12:35:55.335Z,100576.81
2022-10-23T12:38:25.658Z,100560.22
2022-10-23T12:41:04.713Z,100549.34
2022-10-23T12:43:37.656Z,100555.81
2022-10-23T12:46:18.167Z,100549.50
2022-10-23T12:48:50.250Z,100551.50
2022-10-23T12:51:24.417Z,100539.47
2022-10-23T12:53:51.202Z,100537.19
2022-10-23T12:56:18.505Z,100529.28
2022-10-23T12:58:58.066Z,100521.78
2022-10-23T13:01:34.677Z,100517.03
2022-10-23T13:04:22.098Z,100515.03
2022-10-23T13:06:50.004Z,100501.44
2022-10-23T13:09:27.596Z,100500.47
2022-10-23T13:11:55.266Z,100505.19
2022-10-23T13:14:37.310Z,100508.88
2022-10-23T13:17:08.844Z,100500.72
2022-10-23T13:19:35.853Z,100498.47
2022-10-23T13:22:05.221Z,100494.31
2022-10-23T13:24:31.774Z,100498.88
2022-10-23T13:26:58.595Z,100496.88
2022-10-23T13:29:31.620Z,100481.56
2022-10-23T13:32:09.275Z,100461.50
2022-10-23T13:34:35.618Z,100466.41
2022-10-23T13:37:22.437Z,100469.97
2022-10-23T13:40:03.070Z,100462.22
2022-10-23T13:42:29.562Z,100456.19
2022-10-23T13:44:55.981Z,100458.19
2022-10-23T13:47:22.373Z,100455.63
2022-10-23T13:49:48.767Z,100446.66
2022-10-23T13:52:20.042Z,100437.63
2022-10-23T13:54:46.450Z,100411.69
2022-10-23T13:57:14.683Z,100415.53
2022-10-23T13:59:41.494Z,100406.63
2022-10-23T14:02:19.747Z,100402.94
2022-10-23T14:04:47.174Z,100405.94
2022-10-23T14:07:13.507Z,100404.94
2022-10-23T14:09:39.854Z,100402.50
2022-10-23T14:12:06.289Z,100416.06
2022-10-23T14:14:32.851Z,100408.56
2022-10-23T14:16:59.222Z,100418.03
2022-10-23T14:19:25.735Z,100402.91
2022-10-23T14:21:52.111Z,100399.22
2022-10-23T14:24:18.467Z,100397.53
2022-10-23T14:26:44.835Z,100379.88
2022-10-23T14:29:18.390Z,100374.31
2022-10-23T14:31:47.868Z,100383.75
2022-10-23T14:34:14.201Z,100385.91
2022-10-23T14:36:56.491Z,100378.94
2022-10-23T14:39:26.900Z,100372.22
2022-10-23T14:41:53.256Z,100379.59
2022-10-23T14:44:19.615Z,100373.22
2022-10-23T14:46:46.008Z,100383.25
2022-10-23T14:49:12.402Z,100383.31
2022-10-23T14:51:38.829Z,100372.69
2022-10-23T14:54:07.145Z,100384.06
2022-10-23T14:56:37.520Z,100376.03
2022-10-23T14:59:04.235Z,100383.91
2022-10-23T15:01:31.860Z,100380.88
2022-10-23T15:03:58.507Z,100368.81
2022-10-23T15:06:25.545Z,100380.34
2022-10-23T15:08:55.076Z,100370.38
2022-10-23T15:11:22.481Z,100362.09
2022-10-23T15:13:48.842Z,100361.53
2022-10-23T15:16:15.223Z,100359.22
2022-10-23T15:18:41.717Z,100352.81
2022-10-23T15:21:09.153Z,100363.47
2022-10-23T15:23:39.040Z,100347.72
2022-10-23T15:26:08.844Z,100348.00
2022-10-23T15:28:35.277Z,100340.25
2022-10-23T15:31:01.681Z,100340.97
2022-10-23T15:33:28.359Z,100351.75
2022-10-23T15:35:55.932Z,100350.34
2022-10-23T15:38:23.350Z,100332.53
2022-10-23T15:40:49.722Z,100337.97
2022-10-23T15:43:17.163Z,100331.56
2022-10-23T15:45:43.777Z,100334.16
2022-10-23T15:48:10.183Z,100317.56
2022-10-23T15:50:37.076Z,100317.84
2022-10-23T15:53:03.690Z,100311.97
2022-10-23T15:55:30.378Z,100318.41
2022-10-23T15:58:01.802Z,100305.25
2022-10-23T16:00:28.228Z,100297.50
2022-10-23T16:02:54.707Z,100299.66
2022-10-23T16:05:21.111Z,100298.81
2022-10-23T16:07:47.478Z,100297.25
2022-10-23T16:10:13.863Z,100302.94
2022-10-23T16:12:40.276Z,100292.66
2022-10-23T16:15:08.061Z,100287.50
2022-10-23T16:17:34.540Z,100290.81
2022-10-23T16:20:00.898Z,100290.38
2022-10-23T16:22:27.530Z,100284.34
2022-10-23T16:24:54.045Z,100285.78
2022-10-23T16:27:20.412Z,100284.34
2022-10-23T16:29:46.754Z,100277.56
2022-10-23T16:32:13.124Z,100271.72
2022-10-23T16:34:39.530Z,100266.56
2022-10-23T16:37:05.967Z,100270.56
2022-10-23T16:39:32.485Z,100259.09
2022-10-23T16:41:58.886Z,100264.25
2022-10-23T16:44:25.310Z,100264.81
2022-10-23T16:46:51.765Z,100271.41
2022-10-23T16:49:18.254Z,100272.53
2022-10-23T16:51:44.694Z,100262.22
2022-10-23T16:54:11.273Z,100257.34
2022-10-23T16:56:37.723Z,100257.06
2022-10-23T16:59:04.154Z,100261.91
2022-10-23T17:01:32.167Z,100258.00
2022-10-23T17:03:59.436Z,100256.16
2022-10-23T17:06:28.977Z,100248.69
2022-10-23T17:08:56.125Z,100267.38
2022-10-23T17:11:34.511Z,100250.66
2022-10-23T17:14:04.187Z,100250.06
2022-10-23T17:16:46.080Z,100242.31
2022-10-23T17:19:39.766Z,100228.41
2022-10-23T17:22:01.486Z,100239.69
2022-10-23T17:24:28.096Z,100236.50
2022-10-23T17:26:54.704Z,100229.63
2022-10-23T17:29:21.077Z,100231.28
2022-10-23T17:31:49.663Z,100238.25
2022-10-23T17:34:19.994Z,100230.50
2022-10-23T17:36:48.930Z,100222.78
2022-10-23T17:39:18.886Z,100221.06
2022-10-23T17:41:45.998Z,100212.06
2022-10-23T17:44:12.646Z,100214.03
2022-10-23T17:46:39.135Z,100212.47
2022-10-23T17:49:05.927Z,100216.03
2022-10-23T17:51:34.686Z,100218.22
2022-10-23T17:54:03.952Z,100228.22
2022-10-23T17:56:32.194Z,100224.78
2022-10-23T17:59:07.366Z,100219.13
2022-10-23T18:01:33.956Z,100214.84
2022-10-23T18:04:03.710Z,100208.97
2022-10-23T18:06:42.174Z,100203.94
2022-10-23T18:09:08.824Z,100209.03
2022-10-23T18:11:37.943Z,100197.47
2022-10-23T18:14:06.249Z,100203.72
2022-10-23T18:16:37.842Z,100194.09
2022-10-23T18:19:04.454Z,100190.97
2022-10-23T18:21:31.061Z,100192.69
2022-10-23T18:24:01.740Z,100195.13
2022-10-23T18:26:30.724Z,100191.03
2022-10-23T18:28:59.151Z,100190.91
2022-10-23T18:31:27.438Z,100178.91
2022-10-23T18:33:58.785Z,100172.09
2022-10-23T18:36:28.597Z,100166.97
2022-10-23T18:41:27.049Z,100162.84
2022-10-23T18:43:54.662Z,100167.19
2022-10-23T18:46:21.583Z,100166.22
2022-10-23T18:48:50.504Z,100168.97
2022-10-23T18:51:22.407Z,100168.00
2022-10-23T18:53:48.826Z,100168.63
2022-10-23T18:56:21.686Z,100167.06
2022-10-23T18:58:59.433Z,100166.09
2022-10-23T19:01:27.546Z,100166.66
2022-10-23T19:06:22.678Z,100182.84
2022-10-23T19:08:49.787Z,100195.28
2022-10-23T19:11:18.180Z,100214.19
2022-10-23T19:13:44.626Z,100236.53
2022-10-23T19:16:21.383Z,100255.44
2022-10-23T19:18:55.346Z,100264.84
2022-10-23T19:21:25.193Z,100267.84
2022-10-23T19:23:52.594Z,100272.28
2022-10-23T19:26:19.012Z,100283.03
2022-10-23T19:28:49.089Z,100286.34
2022-10-23T19:31:15.838Z,100290.22
2022-10-23T19:33:42.294Z,100292.94
2022-10-23T19:36:13.905Z,100306.25
2022-10-23T19:38:41.466Z,100304.97
2022-10-23T19:41:08.511Z,100306.25
2022-10-23T19:43:35.089Z,100288.03
2022-10-23T19:46:04.960Z,100276.88
2022-10-23T19:48:34.439Z,100257.97
2022-10-23T19:51:00.976Z,100232.66
2022-10-23T19:53:27.341Z,100165.38
2022-10-23T19:56:05.670Z,100144.31
2022-10-23T19:58:32.272Z,100173.50
2022-10-23T20:00:58.819Z,100209.31
2022-10-23T20:03:25.393Z,100206.72
2022-10-23T20:05:51.871Z,100214.88
2022-10-23T20:08:18.302Z,100223.91
2022-10-23T20:10:46.539Z,100232.88
2022-10-23T20:13:19.873Z,100232.75
2022-10-23T20:15:46.957Z,100239.28
2022-10-23T20:18:13.316Z,100231.38
2022-10-23T20:20:41.733Z,100233.06
2022-10-23T20:23:08.122Z,100240.94
2022-10-23T20:25:34.565Z,100234.31
2022-10-23T20:28:00.986Z,100236.25
2022-10-23T20:30:27.415Z,100238.50
2022-10-23T20:32:53.782Z,100241.63
2022-10-23T20:35:20.149Z,100247.06
2022-10-23T20:37:46.833Z,100241.28
2022-10-23T20:40:13.477Z,100234.41
2022-10-23T20:42:39.976Z,100240.38
2022-10-23T20:45:06.878Z,100235.69
2022-10-23T20:47:33.288Z,100230.25
2022-10-23T20:49:59.718Z,100237.94
2022-10-23T20:52:29.348Z,100241.78
2022-10-23T20:54:55.726Z,100246.59
2022-10-23T20:57:22.059Z,100248.59
2022-10-23T20:59:48.429Z,100247.88
2022-10-23T21:02:14.841Z,100248.00
2022-10-23T21:04:41.341Z,100243.09
2022-10-23T21:07:10.466Z,100239.78
2022-10-23T21:09:38.563Z,100244.38
2022-10-23T21:12:06.379Z,100242.97
2022-10-23T21:14:32.881Z,100242.81
2022-10-23T21:16:59.337Z,100243.84
2022-10-23T21:19:25.773Z,100254.03
2022-10-23T21:21:52.483Z,100252.22
2022-10-23T21:24:18.917Z,100256.47
2022-10-23T21:26:45.835Z,100257.13
2022-10-23T21:29:20.861Z,100251.75
2022-10-23T21:32:01.471Z,100259.69
2022-10-23T21:34:28.741Z,100246.31
2022-10-23T21:39:46.038Z,100245.50
2022-10-23T21:42:13.886Z,100245.41
2022-10-23T21:44:40.351Z,100243.94
2022-10-23T21:47:06.767Z,100236.31
2022-10-23T21:49:33.270Z,100227.84
2022-10-23T21:51:59.684Z,100233.25
2022-10-23T21:54:26.041Z,100231.03
2022-10-23T21:56:53.892Z,100223.88
2022-10-23T21:59:24.100Z,100219.91
2022-10-23T22:01:51.581Z,100210.41
2022-10-23T22:04:19.276Z,100219.03
2022-10-23T22:06:48.116Z,100211.03
2022-10-23T22:09:17.326Z,100220.75
2022-10-23T22:11:43.697Z,100218.41
2022-10-23T22:14:10.099Z,100207.56
2022-10-23T22:16:36.571Z,100218.41
2022-10-23T22:19:03.571Z,100218.97
2022-10-23T22:21:30.657Z,100222.91
2022-10-23T22:23:59.026Z,100217.47
2022-10-23T22:26:29.147Z,100220.72
2022-10-23T22:28:58.279Z,100220.47
2022-10-23T22:31:28.339Z,100210.13
2022-10-23T22:33:55.894Z,100211.25
2022-10-23T22:36:22.735Z,100215.44
2022-10-23T22:38:49.394Z,100207.72
2022-10-23T22:41:16.316Z,100207.47
2022-10-23T22:43:42.934Z,100205.13
2022-10-23T22:46:12.678Z,100214.38
2022-10-23T22:48:39.593Z,100216.25
2022-10-23T22:51:09.054Z,100225.09
2022-10-23T22:53:35.989Z,100220.41
2022-10-23T22:56:06.745Z,100230.72
2022-10-23T22:58:33.145Z,100220.75
2022-10-23T23:01:09.331Z,100220.84
2022-10-23T23:03:37.466Z,100227.84
2022-10-23T23:06:06.049Z,100229.69
2022-10-23T23:08:33.980Z,100208.84
2022-10-23T23:11:00.434Z,100203.59
2022-10-23T23:13:27.224Z,100211.00
2022-10-23T23:15:54.366Z,100216.03
2022-10-23T23:18:21.623Z,100204.53
2022-10-23T23:20:48.499Z,100195.25
2022-10-23T23:23:15.102Z,100188.25
2022-10-23T23:25:46.838Z,100186.81
2022-10-23T23:28:15.360Z,100189.03
2022-10-23T23:30:42.134Z,100186.28
2022-10-23T23:33:09.779Z,100192.91
2022-10-23T23:35:44.267Z,100189.44
2022-10-23T23:38:11.739Z,100181.06
2022-10-23T23:40:38.386Z,100182.50
2022-10-23T23:43:05.163Z,100177.28
2022-10-23T23:45:31.747Z,100176.69
2022-10-23T23:47:59.042Z,100173.25
2022-10-23T23:50:27.848Z,100180.66
2022-10-23T23:52:54.420Z,100178.59
2022-10-23T23:55:20.835Z,100179.47
2022-10-23T23:57:47.495Z,100172.91
